Time;durP1;ratioP1;P1;durP2;ratioP2;P2;SDS_P1;SDS_P2;PMS_P1;PMS_P2;Temp;Humidity;BMP_temperature;BMP_pressure;BME280_temperature;BME280_humidity;BME280_pressure;Samples;Min_cycle;Max_cycle;Signal;HPM_P1;HPM_P2
2023/01/19 01:03:52;;;;;;;12.52;4.80;;;;;;;;;;6091006;22;2876419;-74
2023/01/19 01:06:20;;;;;;;13.73;5.45;;;;;;;;;;6090750;23;20089;-78
2023/01/19 01:22:29;;;;;;;9.65;4.53;;;;;;;;;;5010597;27;20541;-77
2023/01/19 01:24:56;;;;;;;;;;;;;;;;;;4890271;28;20044;-81
2023/01/19 01:32:26;;;;;;;11.77;4.80;;;;;;;;;;4904213;27;3612710;-78
2023/01/19 01:34:53;;;;;;;11.63;4.70;;;;;;;;;;4969327;28;20099;-76
2023/01/19 01:37:20;;;;;;;10.70;4.28;;;;;;;;;;4961054;28;20073;-75
2023/01/19 01:42:16;;;;;;;14.77;4.55;;;;;;;;;;4864906;28;20050;-78
2023/01/19 01:51:50;;;;;;;9.00;3.95;;;;;;;;;;5005940;27;20428;-83
2023/01/19 01:54:19;;;;;;;9.32;4.10;;;;;;;;;;4922210;28;20062;-75
2023/01/19 01:56:47;;;;;;;10.57;4.13;;;;;;;;;;4911821;28;20078;-77
2023/01/19 02:04:40;;;;;;;12.70;4.35;;;;;;;;;;5014839;28;20051;-77
2023/01/19 07:37:00;;;;;;;4.65;1.10;;;;;;;;;;6108779;22;20049;-73
2023/01/19 07:39:29;;;;;;;4.00;1.00;;;;;;;;;;6005361;23;20125;-75
2023/01/19 07:41:56;;;;;;;4.18;1.35;;;;;;;;;;6081101;23;20056;-72
2023/01/19 07:44:23;;;;;;;4.45;0.75;;;;;;;;;;6046402;23;20027;-73
2023/01/19 08:02:36;;;;;;;4.30;0.98;;;;;;;;;;6086526;22;1661634;-76
2023/01/19 08:05:09;;;;;;;4.88;1.20;;;;;;;;;;6084527;23;20033;-75
2023/01/19 08:10:21;;;;;;;3.75;1.25;;;;;;;;;;5021660;27;20426;-74
2023/01/19 08:12:50;;;;;;;6.35;1.73;;;;;;;;;;4921793;28;20127;-73
2023/01/19 08:15:30;;;;;;;4.82;1.05;;;;;;;;;;4911723;28;20142;-75
2023/01/19 09:12:58;;;;;;;6.28;1.65;;;;;;;;;;6336613;22;20020;-73
2023/01/19 09:15:25;;;;;;;4.18;1.25;;;;;;;;;;6048755;23;20030;-76
2023/01/19 09:17:52;;;;;;;5.05;1.70;;;;;;;;;;6001839;23;20041;-75
2023/01/19 09:20:23;;;;;;;6.43;1.60;;;;;;;;;;6061608;23;20037;-75
2023/01/19 09:43:26;;;;;;;7.38;2.05;;;;;;;;;;6061378;22;1478675;-74
2023/01/19 09:45:58;;;;;;;4.57;1.30;;;;;;;;;;6034091;23;20030;-73
2023/01/19 09:51:11;;;;;;;5.10;1.70;;;;;;;;;;4986011;27;20447;-73
2023/01/19 09:53:49;;;;;;;5.53;1.73;;;;;;;;;;4926612;28;20586;-74
2023/01/19 09:56:24;;;;;;;4.55;1.70;;;;;;;;;;4906579;28;20054;-73
2023/01/19 10:01:44;;;;;;;7.47;1.20;;;;;;;;;;5020534;27;20516;-77
2023/01/19 10:04:34;;;;;;;5.55;1.25;;;;;;;;;;4922276;28;20055;-76
2023/01/19 10:09:39;;;;;;;4.05;1.30;;;;;;;;;;4873883;28;20953;-73
2023/01/19 10:12:11;;;;;;;6.32;1.50;;;;;;;;;;4907571;28;20055;-78
2023/01/19 10:14:42;;;;;;;4.30;1.55;;;;;;;;;;4928468;28;20153;-71
2023/01/19 10:17:18;;;;;;;5.32;1.30;;;;;;;;;;4896133;28;20290;-76
2023/01/19 10:22:28;;;;;;;8.40;1.50;;;;;;;;;;4981708;27;20521;-74
2023/01/19 10:24:57;;;;;;;4.32;1.30;;;;;;;;;;4948663;28;20132;-77
2023/01/19 10:27:26;;;;;;;7.40;1.02;;;;;;;;;;4924652;28;20049;-75
2023/01/19 10:48:55;;;;;;;6.13;1.08;;;;;;;;;;6168721;22;20128;-72
2023/01/19 11:07:12;;;;;;;8.48;2.15;;;;;;;;;;6265654;21;1481188;-76
2023/01/19 11:09:42;;;;;;;7.88;1.98;;;;;;;;;;6084716;23;20033;-73
2023/01/19 11:12:16;;;;;;;7.68;1.80;;;;;;;;;;6125587;23;20025;-75
2023/01/19 11:14:43;;;;;;;3.75;1.58;;;;;;;;;;6135848;23;20021;-75
2023/01/19 11:17:18;;;;;;;12.00;1.95;;;;;;;;;;6101159;23;20048;-73
2023/01/19 11:32:59;;;;;;;10.00;2.50;;;;;;;;;;6095896;21;7684887;-76
2023/01/19 11:35:34;;;;;;;8.00;1.88;;;;;;;;;;6041431;23;20033;-75
2023/01/19 11:38:18;;;;;;;6.18;2.22;;;;;;;;;;5979014;23;20026;-75
2023/01/19 11:40:50;;;;;;;5.72;1.88;;;;;;;;;;6012844;23;20033;-76
2023/01/19 11:43:20;;;;;;;7.65;2.03;;;;;;;;;;6063821;23;20281;-79
2023/01/19 11:45:48;;;;;;;10.63;2.10;;;;;;;;;;6103388;23;20032;-72
2023/01/19 11:48:21;;;;;;;7.63;2.10;;;;;;;;;;6096865;23;20088;-74
2023/01/19 11:53:20;;;;;;;6.20;1.85;;;;;;;;;;6004846;23;20575;-73
2023/01/19 11:55:49;;;;;;;13.73;2.50;;;;;;;;;;6025355;23;20056;-77
2023/01/19 12:13:54;;;;;;;6.80;1.88;;;;;;;;;;6151152;22;1485558;-78
2023/01/19 12:16:22;;;;;;;6.10;2.28;;;;;;;;;;6084881;23;20056;-77
2023/01/19 12:18:54;;;;;;;7.35;1.98;;;;;;;;;;6117382;23;20020;-75
2023/01/19 13:03:06;;;;;;;4.82;1.60;;;;;;;;;;6131154;22;1556483;-72
2023/01/19 13:05:56;;;;;;;5.15;1.35;;;;;;;;;;6114297;23;20025;-71
2023/01/19 13:08:25;;;;;;;4.43;1.33;;;;;;;;;;6043842;23;20022;-69
2023/01/19 13:11:12;;;;;;;5.07;1.70;;;;;;;;;;6063353;23;20088;-68
2023/01/19 13:13:46;;;;;;;10.93;1.40;;;;;;;;;;6061628;23;20853;-69
2023/01/19 13:16:31;;;;;;;6.88;1.70;;;;;;;;;;6105799;23;20096;-71
2023/01/19 13:19:15;;;;;;;5.50;1.50;;;;;;;;;;6075539;23;20093;-72
2023/01/19 13:21:43;;;;;;;13.52;2.03;;;;;;;;;;6083707;23;20381;-72
2023/01/19 13:24:13;;;;;;;2.22;0.90;;;;;;;;;;6068240;23;20121;-74
2023/01/19 13:26:53;;;;;;;7.10;1.10;;;;;;;;;;6103269;23;20032;-71
2023/01/19 13:29:26;;;;;;;3.17;1.33;;;;;;;;;;6119009;23;20042;-72
2023/01/19 13:32:01;;;;;;;3.63;0.90;;;;;;;;;;6076587;23;20025;-75
2023/01/19 13:34:33;;;;;;;3.22;1.00;;;;;;;;;;6043525;23;20098;-74
2023/01/19 13:37:00;;;;;;;2.92;0.90;;;;;;;;;;6097537;23;20026;-71
2023/01/19 13:39:30;;;;;;;2.28;0.80;;;;;;;;;;6107910;23;20033;-74
2023/01/19 13:42:04;;;;;;;2.25;0.90;;;;;;;;;;6043671;23;20025;-71
2023/01/19 13:46:59;;;;;;;6.50;1.08;;;;;;;;;;6035046;23;20022;-73
2023/01/19 13:55:17;;;;;;;4.55;0.93;;;;;;;;;;5015383;27;20431;-71
2023/01/19 13:57:45;;;;;;;3.97;0.90;;;;;;;;;;4986091;28;20148;-74
2023/01/19 14:00:21;;;;;;;3.72;0.82;;;;;;;;;;4882722;28;20055;-72
2023/01/19 14:07:42;;;;;;;2.72;0.80;;;;;;;;;;4816249;29;20299;-71
2023/01/19 14:12:39;;;;;;;4.78;0.80;;;;;;;;;;4862330;29;20052;-71
2023/01/19 14:15:13;;;;;;;3.05;0.90;;;;;;;;;;4889871;29;20056;-72
2023/01/19 14:17:44;;;;;;;4.13;0.80;;;;;;;;;;4894028;28;20320;-75
2023/01/19 14:28:20;;;;;;;4.05;0.70;;;;;;;;;;4985329;27;20552;-74
2023/01/19 14:30:58;;;;;;;2.45;0.90;;;;;;;;;;4919545;28;20055;-72
2023/01/19 14:33:40;;;;;;;3.05;0.90;;;;;;;;;;4893483;29;20055;-73
2023/01/19 14:38:38;;;;;;;2.80;0.70;;;;;;;;;;4836479;29;20088;-72
2023/01/19 14:43:32;;;;;;;6.85;0.90;;;;;;;;;;4834541;29;20419;-72
2023/01/19 14:45:59;;;;;;;;;;;;;;;;;;4824819;29;20061;-75
2023/01/19 14:48:30;;;;;;;1.73;0.82;;;;;;;;;;4808652;29;19928;-71
2023/01/19 14:54:17;;;;;;;3.88;0.90;;;;;;;;;;5016364;27;20572;-75
2023/01/19 14:56:44;;;;;;;3.63;1.10;;;;;;;;;;4940736;28;20054;-74
2023/01/19 14:59:12;;;;;;;2.17;0.90;;;;;;;;;;4943788;28;20061;-73
2023/01/19 15:01:39;;;;;;;1.70;0.70;;;;;;;;;;4901563;28;20148;-73
2023/01/19 15:04:06;;;;;;;1.80;0.90;;;;;;;;;;4891323;28;20060;-71
2023/01/19 15:06:33;;;;;;;4.18;0.80;;;;;;;;;;4945331;28;20054;-74
2023/01/19 15:09:03;;;;;;;7.10;0.98;;;;;;;;;;4935342;28;20124;-76
2023/01/19 15:11:34;;;;;;;6.45;0.82;;;;;;;;;;4908072;28;20135;-71
2023/01/19 15:14:01;;;;;;;2.33;0.80;;;;;;;;;;4896332;28;20062;-73
2023/01/19 15:16:29;;;;;;;3.03;0.90;;;;;;;;;;4876700;28;20056;-71
2023/01/19 15:18:57;;;;;;;2.15;0.80;;;;;;;;;;4885414;29;20396;-70
2023/01/19 15:23:49;;;;;;;1.63;0.73;;;;;;;;;;4876408;28;20057;-70
2023/01/19 15:26:18;;;;;;;3.58;1.77;;;;;;;;;;4886423;28;20104;-73
2023/01/19 15:28:49;;;;;;;2.30;0.93;;;;;;;;;;4890977;28;20081;-73
2023/01/19 15:31:17;;;;;;;3.05;0.70;;;;;;;;;;4877450;28;20070;-75
2023/01/19 15:33:50;;;;;;;3.33;0.90;;;;;;;;;;4870502;29;20063;-73
2023/01/19 15:36:20;;;;;;;5.13;0.98;;;;;;;;;;4859630;29;20096;-72
2023/01/19 15:38:49;;;;;;;1.52;0.60;;;;;;;;;;4876421;28;20060;-73
2023/01/19 15:41:16;;;;;;;;;;;;;;;;;;4887899;28;20068;-72
2023/01/19 15:43:43;;;;;;;5.57;0.95;;;;;;;;;;4865654;29;20166;-72
2023/01/19 15:46:14;;;;;;;1.65;0.65;;;;;;;;;;4883388;29;20091;-72
2023/01/19 15:48:41;;;;;;;3.22;0.90;;;;;;;;;;4936296;28;20250;-71
2023/01/19 15:51:11;;;;;;;4.55;0.93;;;;;;;;;;4952611;28;20840;-70
2023/01/19 15:53:39;;;;;;;1.27;0.70;;;;;;;;;;4923245;28;20138;-71
2023/01/19 15:56:13;;;;;;;4.57;0.73;;;;;;;;;;4947233;28;20057;-74
2023/01/19 15:58:40;;;;;;;4.47;1.05;;;;;;;;;;4943702;28;20062;-73
2023/01/19 16:01:07;;;;;;;2.67;0.90;;;;;;;;;;4931745;28;20100;-70
2023/01/19 16:03:35;;;;;;;1.65;0.70;;;;;;;;;;4900049;28;20046;-69
2023/01/19 16:06:03;;;;;;;6.63;0.98;;;;;;;;;;4934838;28;20081;-70
2023/01/19 16:08:30;;;;;;;3.05;1.08;;;;;;;;;;4944293;28;20520;-71
2023/01/19 16:10:57;;;;;;;2.85;0.95;;;;;;;;;;4956356;28;20088;-72
2023/01/19 16:13:24;;;;;;;3.50;1.00;;;;;;;;;;4930797;28;20050;-70
2023/01/19 16:15:51;;;;;;;2.78;1.13;;;;;;;;;;4928683;28;20062;-74
2023/01/19 16:18:17;;;;;;;5.15;1.40;;;;;;;;;;4935230;28;20072;-71
2023/01/19 16:20:46;;;;;;;6.47;2.25;;;;;;;;;;4944499;28;20066;-72
2023/01/19 16:23:14;;;;;;;4.85;1.33;;;;;;;;;;4909648;28;20061;-72
2023/01/19 16:25:41;;;;;;;4.63;1.33;;;;;;;;;;4931888;28;20046;-72
2023/01/19 16:28:12;;;;;;;4.50;1.55;;;;;;;;;;4926262;28;20151;-73
2023/01/19 16:30:39;;;;;;;4.05;1.83;;;;;;;;;;4893854;29;20145;-71
2023/01/19 16:33:07;;;;;;;5.30;2.10;;;;;;;;;;4896280;28;20071;-72
2023/01/19 16:35:34;;;;;;;7.45;1.77;;;;;;;;;;4864376;28;20061;-72
2023/01/19 16:40:27;;;;;;;4.82;2.05;;;;;;;;;;4801936;29;20061;-73
2023/01/19 16:46:03;;;;;;;6.82;2.80;;;;;;;;;;5051902;27;20686;-75
2023/01/19 16:48:31;;;;;;;7.35;2.33;;;;;;;;;;5000536;28;20048;-72
2023/01/19 16:50:58;;;;;;;9.82;2.88;;;;;;;;;;5050351;28;20060;-71
2023/01/19 16:53:25;;;;;;;6.95;2.70;;;;;;;;;;5008614;28;20075;-73
2023/01/19 16:55:52;;;;;;;8.43;3.00;;;;;;;;;;5040043;28;20052;-73
2023/01/19 16:58:19;;;;;;;8.15;2.88;;;;;;;;;;4974294;28;20086;-70
2023/01/19 17:00:48;;;;;;;7.93;3.25;;;;;;;;;;5007097;28;20059;-71
2023/01/19 17:03:20;;;;;;;12.40;3.40;;;;;;;;;;4965888;28;20045;-73
2023/01/19 17:05:50;;;;;;;9.75;3.88;;;;;;;;;;4972468;28;20061;-73
2023/01/19 17:08:18;;;;;;;9.15;3.80;;;;;;;;;;4936081;28;20137;-75
2023/01/19 17:10:45;;;;;;;11.93;3.63;;;;;;;;;;4964084;28;20141;-71
2023/01/19 17:18:17;;;;;;;10.40;4.13;;;;;;;;;;4523617;27;15046578;-75
2023/01/19 17:20:44;;;;;;;9.30;4.57;;;;;;;;;;5074121;28;20056;-72
2023/01/19 17:23:11;;;;;;;12.23;4.50;;;;;;;;;;5013035;28;20044;-76
2023/01/19 17:25:38;;;;;;;17.60;4.95;;;;;;;;;;5010022;28;20186;-72
2023/01/19 17:28:04;;;;;;;13.48;5.25;;;;;;;;;;5062214;28;20056;-75
2023/01/19 17:30:34;;;;;;;14.88;5.55;;;;;;;;;;5063303;28;20051;-73
2023/01/19 17:33:03;;;;;;;13.57;5.38;;;;;;;;;;4957457;28;20057;-71
2023/01/19 17:35:34;;;;;;;16.00;5.65;;;;;;;;;;4926359;28;20571;-74
2023/01/19 17:38:00;;;;;;;12.85;4.90;;;;;;;;;;4942373;28;20057;-73
2023/01/19 17:40:27;;;;;;;10.57;5.28;;;;;;;;;;5000177;28;20062;-74
2023/01/19 17:42:54;;;;;;;12.60;5.20;;;;;;;;;;4976407;28;20084;-71
2023/01/19 17:47:48;;;;;;;12.70;5.47;;;;;;;;;;4896686;28;20141;-71
2023/01/19 17:50:15;;;;;;;15.82;6.13;;;;;;;;;;4965368;28;20050;-72
2023/01/19 17:52:43;;;;;;;17.83;6.50;;;;;;;;;;4980793;28;20050;-72
2023/01/19 17:55:13;;;;;;;14.98;6.53;;;;;;;;;;5002402;28;20054;-74
2023/01/19 17:57:40;;;;;;;14.68;6.68;;;;;;;;;;4986642;28;20053;-74
2023/01/19 18:00:15;;;;;;;15.23;7.03;;;;;;;;;;4988275;28;20080;-74
2023/01/19 18:05:16;;;;;;;17.65;6.85;;;;;;;;;;4945497;28;20050;-74
2023/01/19 18:07:44;;;;;;;19.77;7.20;;;;;;;;;;4927326;28;20222;-72
2023/01/19 18:15:52;;;;;;;17.83;8.02;;;;;;;;;;4929638;27;20763;-75
2023/01/19 18:18:19;;;;;;;18.58;7.85;;;;;;;;;;4912048;28;20097;-74
2023/01/19 18:20:46;;;;;;;20.98;7.75;;;;;;;;;;4905675;28;20614;-74
2023/01/19 18:26:10;;;;;;;16.00;7.32;;;;;;;;;;5024643;27;20517;-77
2023/01/19 18:36:31;;;;;;;21.48;8.45;;;;;;;;;;4983450;27;20479;-78
2023/01/19 18:49:46;;;;;;;19.77;8.82;;;;;;;;;;4912770;27;20533;-76
2023/01/19 18:52:13;;;;;;;19.90;9.07;;;;;;;;;;4854136;29;20044;-77
2023/01/19 19:00:11;;;;;;;20.52;8.05;;;;;;;;;;5040369;27;20516;-73
2023/01/19 19:02:38;;;;;;;21.45;8.85;;;;;;;;;;4886472;28;20358;-75
2023/01/19 19:08:00;;;;;;;22.25;9.35;;;;;;;;;;4959085;27;20554;-75
2023/01/19 19:10:27;;;;;;;16.40;8.23;;;;;;;;;;4925745;28;20059;-78
2023/01/19 19:12:54;;;;;;;20.65;8.68;;;;;;;;;;4895118;28;20051;-76
2023/01/19 19:18:18;;;;;;;20.10;9.60;;;;;;;;;;5005711;27;20520;-76
2023/01/19 19:20:44;;;;;;;18.02;8.05;;;;;;;;;;4913120;28;20055;-74
2023/01/19 19:23:12;;;;;;;18.63;8.70;;;;;;;;;;4853720;29;20127;-75
2023/01/19 19:28:35;;;;;;;20.92;8.82;;;;;;;;;;4893410;27;20600;-76
2023/01/19 19:31:03;;;;;;;23.30;9.45;;;;;;;;;;4822708;29;20061;-75
2023/01/19 19:38:47;;;;;;;19.98;8.73;;;;;;;;;;4974778;27;20481;-76
2023/01/19 19:41:15;;;;;;;20.15;9.15;;;;;;;;;;4861022;28;20056;-76
2023/01/19 19:48:52;;;;;;;17.97;8.07;;;;;;;;;;4483122;27;15053117;-74
2023/01/19 19:59:13;;;;;;;22.67;9.40;;;;;;;;;;4931462;27;20590;-78
2023/01/19 20:01:44;;;;;;;21.40;8.32;;;;;;;;;;4837534;29;20061;-79
2023/01/19 20:07:13;;;;;;;23.25;8.77;;;;;;;;;;4918671;27;20529;-75
2023/01/19 20:18:02;;;;;;;20.95;9.48;;;;;;;;;;4996235;27;20437;-77
2023/01/19 20:31:10;;;;;;;23.50;9.75;;;;;;;;;;4920626;27;20642;-77
2023/01/19 20:33:37;;;;;;;24.00;9.77;;;;;;;;;;4775959;29;20067;-75
2023/01/19 22:01:44;;;;;;;18.40;7.18;;;;;;;;;;5517073;22;15048716;-73
2023/01/19 22:04:13;;;;;;;18.73;7.03;;;;;;;;;;6036523;23;20022;-72
2023/01/19 22:09:36;;;;;;;18.17;7.72;;;;;;;;;;4986537;27;20399;-72
2023/01/19 22:19:50;;;;;;;18.65;7.15;;;;;;;;;;4907064;28;20592;-75
2023/01/19 22:29:48;;;;;;;13.05;6.13;;;;;;;;;;4464406;27;15040373;-75
2023/01/19 22:40:14;;;;;;;12.73;6.30;;;;;;;;;;4965394;27;20890;-73
2023/01/19 22:53:02;;;;;;;11.90;5.60;;;;;;;;;;4979649;27;20524;-76
2023/01/19 22:55:29;;;;;;;15.98;5.68;;;;;;;;;;4871575;28;20329;-74
2023/01/19 22:57:56;;;;;;;14.50;5.63;;;;;;;;;;4869509;29;20068;-76
2023/01/19 23:00:23;;;;;;;14.38;5.82;;;;;;;;;;4868050;29;20052;-73
2023/01/19 23:02:50;;;;;;;16.95;6.20;;;;;;;;;;4876791;29;20084;-73
2023/01/19 23:05:17;;;;;;;12.88;5.03;;;;;;;;;;4851465;29;20072;-75
2023/01/19 23:10:41;;;;;;;14.43;6.25;;;;;;;;;;4932228;27;20648;-76
2023/01/19 23:13:08;;;;;;;13.57;5.38;;;;;;;;;;4828438;29;20196;-76
2023/01/19 23:21:06;;;;;;;13.65;5.53;;;;;;;;;;4956948;27;20592;-74
2023/01/19 23:23:35;;;;;;;12.25;5.50;;;;;;;;;;4842306;29;20151;-76
2023/01/19 23:26:02;;;;;;;13.73;5.80;;;;;;;;;;4871958;29;20107;-75
2023/01/19 23:31:28;;;;;;;13.18;5.55;;;;;;;;;;4968367;27;20477;-72
2023/01/19 23:33:56;;;;;;;12.05;4.95;;;;;;;;;;4867291;28;20051;-74
2023/01/19 23:36:26;;;;;;;12.38;5.05;;;;;;;;;;4888184;29;20063;-76
2023/01/19 23:41:29;;;;;;;10.80;4.63;;;;;;;;;;4479542;27;15044105;-77
2023/01/19 23:43:58;;;;;;;10.35;3.95;;;;;;;;;;4982541;28;20309;-79
2023/01/19 23:46:25;;;;;;;11.65;4.78;;;;;;;;;;4927791;28;20051;-79
2023/01/19 23:51:48;;;;;;;13.13;5.15;;;;;;;;;;4904312;27;20527;-75
2023/01/19 23:54:15;;;;;;;8.90;4.18;;;;;;;;;;4852348;29;20095;-77
2023/01/19 23:56:42;;;;;;;10.55;4.47;;;;;;;;;;4875221;29;20064;-73
